This is the latest recevied weather packets stored in our database for station/object WX4FUN-13. If no packets are shown the sender has not sent any weather packets the latest 10 day(s).
| Time | Temp. | Humidity | Pressure | Rain* | Wind** | Luminosity | Snow |
|---|---|---|---|---|---|---|---|
| 1778252230 | 13.89° C | 42% | 1011.6 hPa | 0 mm | - | 862 W/m² | - |
| 1778251632 | 13.89° C | 45% | 1011.6 hPa | 0 mm | - | 145 W/m² | - |
| 1778251031 | 14.44° C | 42% | 1011.8 hPa | 0 mm | - | 921 W/m² | - |
| 1778250431 | 14.44° C | 41% | 1011.8 hPa | 0 mm | - | 842 W/m² | - |
| 1778249825 | 13.89° C | 42% | 1011.8 hPa | 0 mm | - | 752 W/m² | - |
| 1778249226 | 13.89° C | 42% | 1011.9 hPa | 0 mm | - | 716 W/m² | - |
| 1778248626 | 13.33° C | 44% | 1011.8 hPa | 0 mm | - | 680 W/m² | - |
| 1778248024 | 13.33° C | 42% | 1012 hPa | 0 mm | - | 638 W/m² | - |
| 1778247426 | 12.78° C | 44% | 1012.2 hPa | 0 mm | - | 620 W/m² | - |
| 1778246823 | 12.78° C | 45% | 1012.3 hPa | 0 mm | - | 594 W/m² | - |
| 1778246223 | 12.78° C | 45% | 1012.4 hPa | 0 mm | - | 84 W/m² | - |
| 1778245623 | 12.22° C | 45% | 1012.5 hPa | 0 mm | - | 530 W/m² | - |
| 1778245021 | 11.67° C | 46% | 1012.4 hPa | 0 mm | - | 468 W/m² | - |
| 1778244421 | 11.11° C | 48% | 1012.5 hPa | 0 mm | - | 464 W/m² | - |
| 1778243834 | 11.11° C | 48% | 1012.4 hPa | 0 mm | - | 421 W/m² | - |
| 1778243219 | 10.56° C | 49% | 1012.5 hPa | 0 mm | - | 393 W/m² | - |
| 1778242620 | 10.56° C | 48% | 1012.4 hPa | 0 mm | - | 367 W/m² | - |
| 1778242031 | 10.56° C | 48% | 1012.5 hPa | 0 mm | - | 330 W/m² | - |
| 1778241420 | 10° C | 49% | 1012.4 hPa | 0 mm | - | 113 W/m² | - |
| 1778240819 | 9.44° C | 50% | 1012.4 hPa | 0 mm | - | 304 W/m² | - |
| 1778240219 | 8.89° C | 52% | 1012.4 hPa | 0 mm | - | 239 W/m² | - |
| 1778239619 | 7.78° C | 63% | 1012.4 hPa | 0 mm | - | 198 W/m² | - |
| 1778239019 | 6.67° C | 68% | 1012.3 hPa | 0 mm | - | 167 W/m² | - |
| 1778238421 | 6.11° C | 75% | 1012.1 hPa | 0 mm | - | 48 W/m² | - |
| 1778237820 | 5.56° C | 76% | 1012 hPa | 0 mm | - | 42 W/m² | - |
* Rain latest hour (hover to see other rain measurements)
** Current wind speed in m/s (hover to see current wind gust speed)